Time;durP1;ratioP1;P1;durP2;ratioP2;P2;SDS_P1;SDS_P2;PMS_P1;PMS_P2;Temp;Humidity;BMP_temperature;BMP_pressure;BME280_temperature;BME280_humidity;BME280_pressure;Samples;Min_cycle;Max_cycle;Signal;HPM_P1;HPM_P2
2021/05/11 00:00:04;;;;;;;;;;;18.30;68.60;;;;;;4328971;33;20024;-76
2021/05/11 00:02:31;;;;;;;;;;;18.20;69.10;;;;;;4317640;33;20014;-76
2021/05/11 00:04:57;;;;;;;;;;;18.20;69.30;;;;;;4316795;33;20012;-76
2021/05/11 00:07:26;;;;;;;;;;;18.10;69.50;;;;;;4318218;33;20016;-76
2021/05/11 00:09:53;;;;;;;;;;;18.10;69.60;;;;;;4316794;33;20400;-76
2021/05/11 00:12:22;;;;;;;;;;;18.00;69.90;;;;;;4329099;33;20046;-76
2021/05/11 00:14:49;;;;;;;;;;;17.90;70.40;;;;;;4328605;33;20014;-76
2021/05/11 00:17:16;;;;;;;;;;;17.90;70.80;;;;;;4316426;33;20087;-76
2021/05/11 00:19:43;;;;;;;;;;;17.80;70.70;;;;;;4316430;33;20054;-76
2021/05/11 00:22:10;;;;;;;;;;;17.80;70.80;;;;;;4317526;33;20061;-77
2021/05/11 00:24:36;;;;;;;;;;;17.80;71.00;;;;;;4328474;33;20060;-76
2021/05/11 00:27:03;;;;;;;;;;;17.70;71.20;;;;;;4317372;33;20023;-76
2021/05/11 00:29:30;;;;;;;;;;;17.70;71.60;;;;;;4316455;33;19998;-76
2021/05/11 00:31:59;;;;;;;;;;;17.60;71.90;;;;;;4317380;33;20023;-76
2021/05/11 00:34:32;;;;;;;;;;;17.60;72.20;;;;;;4328499;33;20061;-76
2021/05/11 00:37:03;;;;;;;;;;;17.60;72.50;;;;;;4317489;33;20014;-76
2021/05/11 00:39:33;;;;;;;;;;;17.60;72.70;;;;;;4317567;33;20057;-76
2021/05/11 00:42:00;;;;;;;;;;;17.60;72.80;;;;;;4315973;33;20008;-76
2021/05/11 00:44:30;;;;;;;;;;;17.60;72.60;;;;;;4317493;33;20108;-76
2021/05/11 00:46:59;;;;;;;;;;;17.60;73.10;;;;;;4328458;33;20022;-76
2021/05/11 00:49:29;;;;;;;;;;;17.50;73.20;;;;;;4328568;33;20083;-76
2021/05/11 00:52:01;;;;;;;;;;;17.50;73.40;;;;;;4316074;33;20384;-76
2021/05/11 00:54:27;;;;;;;;;;;17.50;73.50;;;;;;4328713;33;20403;-76
2021/05/11 00:56:57;;;;;;;;;;;17.40;73.70;;;;;;4316208;33;20003;-76
2021/05/11 00:59:27;;;;;;;;;;;17.40;74.00;;;;;;4317421;33;20022;-76
2021/05/11 01:01:54;;;;;;;;;;;17.30;74.20;;;;;;4328244;33;20408;-76
2021/05/11 01:04:22;;;;;;;;;;;17.30;74.20;;;;;;4316063;33;20050;-76
2021/05/11 01:06:56;;;;;;;;;;;17.40;74.40;;;;;;4328013;33;20018;-77
2021/05/11 01:09:23;;;;;;;;;;;17.40;74.20;;;;;;4328538;33;20009;-77
2021/05/11 01:11:50;;;;;;;;;;;17.40;74.60;;;;;;4317360;33;20011;-76
2021/05/11 01:14:26;;;;;;;;;;;17.50;74.90;;;;;;4317164;33;20010;-76
2021/05/11 01:16:55;;;;;;;;;;;17.50;74.70;;;;;;4316105;33;20407;-76
2021/05/11 01:23:15;;;;;;;;;;;17.60;74.30;;;;;;4317218;33;20104;-76
2021/05/11 01:25:09;;;;;;;;;;;17.60;74.40;;;;;;4313108;33;20379;-77
2021/05/11 01:28:00;;;;;;;;;;;17.50;74.20;;;;;;4316307;33;20066;-76
2021/05/11 01:43:49;;;;;;;;;;;17.50;74.50;;;;;;4316800;33;20077;-76
2021/05/11 01:55:27;;;;;;;;;;;17.60;75.10;;;;;;4318670;33;20419;-77
2021/05/11 01:58:30;;;;;;;;;;;17.70;75.20;;;;;;4319807;33;20058;-77
2021/05/11 02:23:12;;;;;;;;;;;17.70;75.40;;;;;;4317939;33;20387;-77
2021/05/11 02:25:39;;;;;;;;;;;17.70;75.30;;;;;;4330652;33;20013;-77
2021/05/11 02:28:09;;;;;;;;;;;17.70;75.30;;;;;;4318918;33;20057;-77
2021/05/11 02:30:38;;;;;;;;;;;17.70;75.30;;;;;;4319369;33;19998;-77
2021/05/11 02:33:05;;;;;;;;;;;17.80;75.50;;;;;;4306099;33;20006;-76
2021/05/11 02:35:38;;;;;;;;;;;17.80;75.50;;;;;;4330054;33;20057;-77
2021/05/11 02:38:04;;;;;;;;;;;17.70;75.50;;;;;;4317807;33;20058;-77
2021/05/11 02:40:34;;;;;;;;;;;17.70;75.60;;;;;;4330024;33;20451;-77
2021/05/11 02:43:05;;;;;;;;;;;17.70;75.50;;;;;;4319136;33;20006;-77
2021/05/11 02:45:35;;;;;;;;;;;17.70;75.60;;;;;;4318057;33;20406;-77
2021/05/11 02:48:02;;;;;;;;;;;17.70;76.50;;;;;;4319109;33;20027;-77
2021/05/11 02:50:30;;;;;;;;;;;17.70;75.80;;;;;;4318261;33;20024;-78
2021/05/11 02:52:59;;;;;;;;;;;17.70;76.10;;;;;;4318992;33;20061;-77
2021/05/11 02:55:29;;;;;;;;;;;17.60;75.70;;;;;;4318976;33;20053;-77
2021/05/11 02:57:56;;;;;;;;;;;17.60;75.80;;;;;;4329862;33;20061;-77
2021/05/11 03:00:26;;;;;;;;;;;17.60;76.00;;;;;;4329880;33;20412;-77
2021/05/11 03:02:54;;;;;;;;;;;17.60;76.10;;;;;;4317263;33;20012;-77
2021/05/11 03:05:24;;;;;;;;;;;17.70;76.20;;;;;;4318296;33;20010;-77
2021/05/11 03:07:53;;;;;;;;;;;17.70;76.40;;;;;;4329693;33;20069;-76
2021/05/11 03:10:23;;;;;;;;;;;17.60;76.20;;;;;;4329909;33;20069;-77
2021/05/11 03:12:50;;;;;;;;;;;17.60;76.30;;;;;;4329711;33;20013;-77
2021/05/11 03:15:16;;;;;;;;;;;17.60;76.30;;;;;;4318730;33;20113;-77
2021/05/11 03:17:45;;;;;;;;;;;17.60;76.40;;;;;;4317751;33;20392;-77
2021/05/11 03:20:18;;;;;;;;;;;17.60;76.30;;;;;;4317311;33;20007;-77
2021/05/11 03:22:48;;;;;;;;;;;17.70;76.60;;;;;;4329792;33;20025;-77
2021/05/11 03:25:14;;;;;;;;;;;17.60;76.50;;;;;;4317507;33;20010;-77
2021/05/11 03:27:41;;;;;;;;;;;17.60;76.50;;;;;;4329618;33;20478;-76
2021/05/11 03:30:11;;;;;;;;;;;17.70;76.70;;;;;;4318539;33;20003;-77
2021/05/11 03:32:41;;;;;;;;;;;17.60;76.60;;;;;;4318612;33;20006;-77
2021/05/11 03:35:13;;;;;;;;;;;17.60;76.70;;;;;;4329241;33;20010;-77
2021/05/11 03:37:45;;;;;;;;;;;17.60;76.90;;;;;;4318486;33;20005;-77
2021/05/11 03:40:12;;;;;;;;;;;17.60;76.80;;;;;;4317238;33;20053;-77
2021/05/11 03:42:53;;;;;;;;;;;17.60;76.90;;;;;;4328992;33;20008;-77
2021/05/11 03:45:25;;;;;;;;;;;17.60;77.10;;;;;;4329059;33;20359;-76
2021/05/11 03:47:57;;;;;;;;;;;17.60;77.10;;;;;;4329218;33;20006;-76
2021/05/11 03:50:27;;;;;;;;;;;17.60;77.00;;;;;;4318142;33;20020;-76
2021/05/11 03:52:57;;;;;;;;;;;17.60;77.20;;;;;;4305078;33;20064;-77
2021/05/11 03:55:26;;;;;;;;;;;17.60;77.30;;;;;;4317799;33;20006;-76
2021/05/11 03:57:55;;;;;;;;;;;17.60;77.20;;;;;;4329121;33;20416;-76
2021/05/11 04:00:22;;;;;;;;;;;17.60;77.50;;;;;;4318103;33;20078;-78
2021/05/11 04:02:56;;;;;;;;;;;17.50;77.40;;;;;;4327291;33;20445;-78
2021/05/11 04:05:24;;;;;;;;;;;17.50;77.50;;;;;;4328899;33;20010;-77
2021/05/11 04:07:58;;;;;;;;;;;17.50;77.40;;;;;;4316885;33;20134;-78
2021/05/11 04:18:17;;;;;;;;;;;17.50;77.70;;;;;;4316659;33;20061;-77
2021/05/11 04:20:46;;;;;;;;;;;17.50;77.80;;;;;;4317544;33;20006;-78
2021/05/11 04:23:16;;;;;;;;;;;17.50;77.90;;;;;;4317993;33;20006;-78
2021/05/11 04:25:46;;;;;;;;;;;17.40;78.10;;;;;;4328806;33;20019;-77
2021/05/11 04:28:16;;;;;;;;;;;17.50;78.10;;;;;;4317719;33;20358;-78
2021/05/11 04:30:44;;;;;;;;;;;17.50;78.30;;;;;;4317909;33;20061;-78
2021/05/11 04:33:11;;;;;;;;;;;17.40;78.30;;;;;;4328420;33;20069;-78
2021/05/11 04:35:39;;;;;;;;;;;17.40;78.50;;;;;;4317406;33;20041;-78
2021/05/11 04:38:09;;;;;;;;;;;17.40;78.50;;;;;;4317595;33;20062;-78
2021/05/11 04:40:40;;;;;;;;;;;17.40;78.60;;;;;;4316340;33;20442;-78
2021/05/11 04:43:14;;;;;;;;;;;17.40;78.60;;;;;;4316414;33;20020;-78
2021/05/11 04:45:41;;;;;;;;;;;17.40;78.70;;;;;;4316056;33;20002;-78
2021/05/11 04:48:09;;;;;;;;;;;17.40;78.90;;;;;;4328225;33;20010;-78
2021/05/11 04:50:37;;;;;;;;;;;17.40;78.80;;;;;;4316277;33;20429;-78
2021/05/11 04:53:06;;;;;;;;;;;17.40;79.00;;;;;;4328406;33;20013;-78
2021/05/11 04:55:34;;;;;;;;;;;17.40;79.00;;;;;;4328423;33;20018;-77
2021/05/11 04:58:06;;;;;;;;;;;17.30;79.10;;;;;;4316154;33;20366;-78
2021/05/11 05:00:37;;;;;;;;;;;17.30;79.10;;;;;;4317284;33;20010;-78
2021/05/11 05:03:11;;;;;;;;;;;17.30;79.20;;;;;;4328116;33;20070;-78
2021/05/11 05:05:38;;;;;;;;;;;17.30;79.30;;;;;;4328399;33;20445;-78
2021/05/11 05:08:09;;;;;;;;;;;17.30;79.30;;;;;;4317268;33;20065;-78
2021/05/11 05:10:39;;;;;;;;;;;17.30;79.50;;;;;;4315903;33;20388;-78
2021/05/11 05:13:06;;;;;;;;;;;17.30;79.50;;;;;;4316697;33;20433;-79
2021/05/11 05:15:39;;;;;;;;;;;17.30;79.50;;;;;;4319188;33;20016;-78
2021/05/11 05:18:06;;;;;;;;;;;17.30;79.50;;;;;;4331441;33;20367;-78
2021/05/11 05:20:33;;;;;;;;;;;17.30;79.80;;;;;;4320016;33;20028;-78
2021/05/11 05:23:01;;;;;;;;;;;17.30;79.80;;;;;;4331338;33;20017;-79
2021/05/11 05:25:29;;;;;;;;;;;17.30;79.90;;;;;;4330872;33;20095;-78
2021/05/11 05:28:06;;;;;;;;;;;17.30;79.80;;;;;;4319954;33;20012;-79
2021/05/11 05:30:33;;;;;;;;;;;17.30;80.00;;;;;;4331360;33;20016;-78
2021/05/11 05:33:06;;;;;;;;;;;17.30;80.00;;;;;;4320073;33;20005;-78
2021/05/11 05:35:35;;;;;;;;;;;17.30;80.10;;;;;;4320225;33;20006;-79
2021/05/11 05:38:05;;;;;;;;;;;17.30;80.20;;;;;;4318656;33;20016;-78
2021/05/11 05:40:38;;;;;;;;;;;17.30;80.30;;;;;;4331240;33;20029;-78
2021/05/11 05:43:11;;;;;;;;;;;17.30;80.10;;;;;;4330917;33;20370;-78
2021/05/11 05:45:38;;;;;;;;;;;17.30;80.40;;;;;;4330724;33;20069;-78
2021/05/11 05:48:08;;;;;;;;;;;17.30;80.40;;;;;;4330617;33;20005;-78
2021/05/11 05:50:40;;;;;;;;;;;17.30;80.50;;;;;;4320212;33;20112;-78
2021/05/11 05:53:23;;;;;;;;;;;17.30;80.60;;;;;;4330656;33;20065;-78
2021/05/11 05:55:53;;;;;;;;;;;17.30;80.70;;;;;;4318909;33;20050;-78
2021/05/11 05:58:20;;;;;;;;;;;17.30;80.80;;;;;;4319782;33;20050;-79
2021/05/11 06:00:52;;;;;;;;;;;17.30;80.70;;;;;;4319451;33;20359;-78
2021/05/11 06:03:50;;;;;;;;;;;17.30;80.80;;;;;;4319775;33;20070;-78
2021/05/11 06:06:10;;;;;;;;;;;17.30;80.80;;;;;;4318602;33;20375;-79
2021/05/11 06:08:43;;;;;;;;;;;17.30;80.80;;;;;;4330711;33;20020;-79
2021/05/11 06:11:20;;;;;;;;;;;17.30;80.90;;;;;;4330720;33;20024;-78
2021/05/11 06:19:30;;;;;;;;;;;17.30;80.80;;;;;;4319275;33;20009;-78
2021/05/11 06:22:00;;;;;;;;;;;17.30;81.00;;;;;;4319205;33;20062;-78
2021/05/11 06:24:31;;;;;;;;;;;17.30;80.90;;;;;;4317487;33;19995;-78
2021/05/11 06:26:58;;;;;;;;;;;17.30;81.20;;;;;;4330789;33;20014;-78
2021/05/11 06:29:28;;;;;;;;;;;17.30;81.20;;;;;;4330358;33;20010;-78
2021/05/11 06:31:58;;;;;;;;;;;17.30;81.30;;;;;;4318803;33;20015;-77
2021/05/11 06:34:25;;;;;;;;;;;17.30;81.30;;;;;;4318676;33;20438;-78
2021/05/11 06:36:55;;;;;;;;;;;17.30;81.20;;;;;;4319193;33;20021;-78
2021/05/11 06:39:24;;;;;;;;;;;17.30;81.20;;;;;;4319276;33;20073;-78
2021/05/11 06:41:57;;;;;;;;;;;17.30;81.20;;;;;;4329937;33;20019;-80
2021/05/11 06:55:07;;;;;;;;;;;17.20;80.80;;;;;;4319107;33;20459;-78
2021/05/11 06:57:35;;;;;;;;;;;17.30;80.80;;;;;;4317600;33;20438;-78
2021/05/11 07:00:05;;;;;;;;;;;17.30;80.90;;;;;;4317635;33;20022;-78
2021/05/11 07:02:38;;;;;;;;;;;17.30;80.70;;;;;;4317270;33;20108;-78
2021/05/11 07:05:08;;;;;;;;;;;17.30;80.50;;;;;;4318513;33;20024;-79
2021/05/11 07:07:36;;;;;;;;;;;17.30;80.40;;;;;;4329625;33;20366;-78
2021/05/11 07:10:24;;;;;;;;;;;17.30;80.40;;;;;;4328583;33;20077;-78
2021/05/11 07:13:10;;;;;;;;;;;17.20;80.40;;;;;;4318662;33;20016;-77
2021/05/11 07:15:42;;;;;;;;;;;17.20;80.40;;;;;;4318647;33;20010;-78
2021/05/11 07:18:10;;;;;;;;;;;17.20;80.30;;;;;;4329794;33;20112;-78
2021/05/11 07:20:45;;;;;;;;;;;17.20;80.20;;;;;;4318554;33;20029;-78
2021/05/11 07:23:17;;;;;;;;;;;17.10;80.10;;;;;;4329668;33;20010;-78
2021/05/11 07:26:05;;;;;;;;;;;17.10;80.30;;;;;;4317407;33;20412;-78
2021/05/11 07:31:08;;;;;;;;;;;17.00;80.40;;;;;;4318717;33;20023;-78
2021/05/11 07:33:44;;;;;;;;;;;17.00;80.50;;;;;;4329500;33;20020;-77
2021/05/11 07:36:13;;;;;;;;;;;17.00;80.60;;;;;;4329183;33;20039;-78
2021/05/11 07:38:43;;;;;;;;;;;17.00;80.60;;;;;;4305187;33;19998;-78
2021/05/11 07:41:16;;;;;;;;;;;16.90;80.40;;;;;;4329204;33;20009;-78
2021/05/11 07:43:54;;;;;;;;;;;16.90;80.30;;;;;;4317509;33;20050;-78
2021/05/11 08:15:41;;;;;;;;;;;17.10;77.90;;;;;;4316457;33;20006;-79
2021/05/11 08:29:28;;;;;;;;;;;17.20;77.30;;;;;;4317718;33;20009;-78
2021/05/11 08:31:58;;;;;;;;;;;17.20;77.40;;;;;;4316545;33;20006;-78
2021/05/11 08:34:28;;;;;;;;;;;17.10;77.00;;;;;;4317815;33;20028;-78
2021/05/11 08:36:55;;;;;;;;;;;17.20;76.80;;;;;;4328634;33;20475;-79
2021/05/11 08:39:27;;;;;;;;;;;17.20;76.50;;;;;;4317895;33;20061;-79
2021/05/11 08:41:54;;;;;;;;;;;17.20;76.40;;;;;;4316223;33;20470;-78
2021/05/11 08:44:21;;;;;;;;;;;17.20;76.20;;;;;;4317367;33;20018;-79
2021/05/11 08:46:51;;;;;;;;;;;17.20;76.40;;;;;;4328372;33;20010;-78
2021/05/11 08:49:22;;;;;;;;;;;17.20;76.40;;;;;;4317149;33;20062;-78
2021/05/11 08:52:04;;;;;;;;;;;17.20;76.40;;;;;;4316353;33;20075;-78
2021/05/11 09:04:34;;;;;;;;;;;17.20;76.10;;;;;;4315952;33;19993;-78
2021/05/11 09:25:47;;;;;;;;;;;17.20;76.60;;;;;;4316491;33;20010;-78
2021/05/11 09:28:45;;;;;;;;;;;17.20;76.70;;;;;;4328297;33;20018;-78
2021/05/11 09:31:34;;;;;;;;;;;17.20;76.70;;;;;;4315983;33;20005;-78
2021/05/11 09:34:18;;;;;;;;;;;17.20;76.80;;;;;;4317184;33;20019;-78
2021/05/11 09:57:04;;;;;;;;;;;17.10;78.10;;;;;;4317150;33;20069;-78
2021/05/11 10:32:37;;;;;;;;;;;17.30;77.60;;;;;;4319206;33;20013;-78
2021/05/11 10:40:33;;;;;;;;;;;17.40;77.60;;;;;;4319304;33;20002;-78
2021/05/11 10:48:34;;;;;;;;;;;17.40;77.40;;;;;;4318972;33;20043;-78
2021/05/11 10:51:06;;;;;;;;;;;17.40;77.30;;;;;;4330165;33;20112;-79
2021/05/11 10:53:39;;;;;;;;;;;17.40;77.30;;;;;;4317951;33;20355;-79
2021/05/11 10:56:33;;;;;;;;;;;17.40;77.30;;;;;;4329331;33;20056;-79
2021/05/11 11:01:55;;;;;;;;;;;17.40;77.30;;;;;;4318485;33;20024;-78
2021/05/11 11:04:27;;;;;;;;;;;17.40;77.20;;;;;;4318585;33;20097;-78
2021/05/11 11:07:00;;;;;;;;;;;17.40;77.20;;;;;;4317374;33;20439;-78
2021/05/11 11:09:35;;;;;;;;;;;17.40;77.10;;;;;;4318919;33;20094;-78
2021/05/11 11:12:07;;;;;;;;;;;17.40;77.10;;;;;;4329470;33;20024;-78
2021/05/11 11:14:43;;;;;;;;;;;17.40;77.10;;;;;;4318979;33;20392;-78
2021/05/11 11:17:14;;;;;;;;;;;17.40;77.00;;;;;;4318701;33;20111;-79
2021/05/11 11:19:48;;;;;;;;;;;17.30;77.00;;;;;;4317493;33;19993;-78
2021/05/11 11:25:17;;;;;;;;;;;17.30;77.20;;;;;;4317156;33;19997;-78
2021/05/11 11:27:46;;;;;;;;;;;17.30;77.20;;;;;;4317545;33;20439;-78
2021/05/11 11:30:17;;;;;;;;;;;17.30;77.20;;;;;;4318683;33;20006;-78
2021/05/11 11:32:47;;;;;;;;;;;17.30;77.00;;;;;;4318427;33;20051;-78
2021/05/11 11:35:18;;;;;;;;;;;17.30;77.00;;;;;;4318634;33;20017;-78
2021/05/11 11:37:46;;;;;;;;;;;17.30;77.00;;;;;;4329584;33;20013;-78
2021/05/11 11:40:21;;;;;;;;;;;17.30;76.90;;;;;;4329270;33;20010;-78
2021/05/11 11:42:52;;;;;;;;;;;17.30;77.00;;;;;;4329457;33;20014;-78
2021/05/11 11:45:23;;;;;;;;;;;17.30;77.00;;;;;;4318421;33;20027;-78
2021/05/11 11:48:00;;;;;;;;;;;17.30;77.20;;;;;;4316880;33;20024;-79
2021/05/11 11:50:35;;;;;;;;;;;17.30;77.00;;;;;;4316720;33;20392;-78
2021/05/11 11:53:13;;;;;;;;;;;17.20;77.00;;;;;;4329437;33;20024;-79
2021/05/11 11:58:27;;;;;;;;;;;17.30;76.80;;;;;;4318497;33;20024;-79
2021/05/11 12:00:55;;;;;;;;;;;17.30;76.70;;;;;;4317948;33;20047;-78
2021/05/11 12:03:24;;;;;;;;;;;17.30;76.80;;;;;;4328492;33;20005;-78
2021/05/11 12:06:01;;;;;;;;;;;17.30;76.60;;;;;;4316843;33;20419;-78
2021/05/11 12:08:33;;;;;;;;;;;17.30;76.40;;;;;;4316913;33;20020;-78
2021/05/11 12:11:08;;;;;;;;;;;17.30;76.20;;;;;;4328882;33;20077;-78
2021/05/11 12:13:39;;;;;;;;;;;17.30;76.30;;;;;;4316980;33;19994;-78
2021/05/11 12:16:15;;;;;;;;;;;17.30;76.10;;;;;;4316544;33;20387;-79
2021/05/11 12:19:07;;;;;;;;;;;17.40;76.10;;;;;;4328625;33;20017;-78
2021/05/11 12:21:52;;;;;;;;;;;17.40;76.10;;;;;;4316491;33;19998;-78
2021/05/11 12:24:24;;;;;;;;;;;17.40;76.10;;;;;;4328244;33;20076;-78
2021/05/11 12:26:52;;;;;;;;;;;17.40;76.00;;;;;;4328485;33;20396;-78
2021/05/11 12:29:37;;;;;;;;;;;17.40;76.00;;;;;;4327383;33;20015;-78
2021/05/11 12:32:07;;;;;;;;;;;17.40;75.90;;;;;;4328681;33;20009;-78
2021/05/11 12:34:34;;;;;;;;;;;17.40;75.80;;;;;;4317675;33;20027;-78
2021/05/11 12:37:09;;;;;;;;;;;17.40;75.80;;;;;;4317691;33;20032;-78
2021/05/11 12:39:49;;;;;;;;;;;17.40;75.80;;;;;;4316525;33;19994;-79
2021/05/11 12:42:19;;;;;;;;;;;17.40;75.90;;;;;;4328530;33;20047;-79
2021/05/11 12:44:49;;;;;;;;;;;17.40;76.10;;;;;;4317505;33;20014;-79
2021/05/11 12:47:17;;;;;;;;;;;17.40;75.90;;;;;;4328574;33;20065;-78
2021/05/11 12:49:49;;;;;;;;;;;17.40;75.90;;;;;;4316477;33;20012;-79
2021/05/11 12:52:26;;;;;;;;;;;17.40;75.80;;;;;;4316435;33;20005;-79
2021/05/11 12:54:54;;;;;;;;;;;17.40;75.80;;;;;;4317575;33;20022;-79
2021/05/11 12:57:51;;;;;;;;;;;17.40;75.80;;;;;;4316303;33;20133;-79
2021/05/11 13:00:33;;;;;;;;;;;17.40;75.90;;;;;;4328068;33;20028;-79
2021/05/11 13:27:51;;;;;;;;;;;17.50;75.90;;;;;;4316794;33;20006;-78
2021/05/11 13:35:35;;;;;;;;;;;17.50;76.00;;;;;;4319599;33;20009;-79
2021/05/11 13:38:03;;;;;;;;;;;17.50;75.90;;;;;;4331069;33;20061;-78
2021/05/11 13:40:31;;;;;;;;;;;17.40;75.90;;;;;;4319704;33;20020;-78
2021/05/11 13:43:01;;;;;;;;;;;17.40;75.80;;;;;;4320030;33;20013;-79
2021/05/11 13:45:37;;;;;;;;;;;17.50;75.90;;;;;;4318710;33;20504;-79
2021/05/11 13:48:14;;;;;;;;;;;17.40;76.00;;;;;;4318687;33;20002;-79
2021/05/11 13:53:12;;;;;;;;;;;17.40;76.10;;;;;;4319000;33;20358;-79
2021/05/11 13:56:36;;;;;;;;;;;17.50;76.30;;;;;;4319627;33;20040;-79
2021/05/11 14:04:18;;;;;;;;;;;17.50;76.50;;;;;;4318378;33;20010;-79
2021/05/11 14:06:46;;;;;;;;;;;17.50;76.60;;;;;;4319607;33;20068;-78
2021/05/11 14:09:22;;;;;;;;;;;17.50;76.80;;;;;;4319570;33;20019;-78
2021/05/11 14:11:52;;;;;;;;;;;17.50;76.80;;;;;;4319428;33;20313;-78
2021/05/11 14:14:23;;;;;;;;;;;17.50;76.80;;;;;;4306624;33;20028;-79
2021/05/11 14:16:53;;;;;;;;;;;17.50;76.80;;;;;;4319687;33;20049;-79
2021/05/11 14:19:28;;;;;;;;;;;17.50;77.20;;;;;;4319630;33;20441;-80
2021/05/11 14:22:02;;;;;;;;;;;17.50;77.50;;;;;;4319240;33;20400;-79
2021/05/11 14:24:34;;;;;;;;;;;17.50;77.60;;;;;;4318588;33;20005;-80
2021/05/11 14:27:04;;;;;;;;;;;17.50;78.30;;;;;;4319367;33;20363;-79
2021/05/11 14:29:31;;;;;;;;;;;17.50;78.90;;;;;;4330551;33;20244;-79
2021/05/11 14:32:01;;;;;;;;;;;17.50;78.10;;;;;;4330417;33;20028;-79
2021/05/11 14:34:29;;;;;;;;;;;17.50;78.10;;;;;;4318039;33;20005;-78
2021/05/11 14:36:59;;;;;;;;;;;17.50;77.90;;;;;;4329974;33;20459;-79
2021/05/11 14:39:29;;;;;;;;;;;17.60;78.00;;;;;;4329912;33;20020;-79
2021/05/11 14:41:57;;;;;;;;;;;17.60;78.10;;;;;;4318114;33;20009;-79
2021/05/11 14:44:30;;;;;;;;;;;17.60;78.10;;;;;;4319207;33;20020;-78
2021/05/11 14:47:00;;;;;;;;;;;17.60;78.10;;;;;;4329323;33;20036;-79
2021/05/11 14:49:27;;;;;;;;;;;17.60;78.10;;;;;;4318771;33;20117;-79
2021/05/11 14:52:01;;;;;;;;;;;17.60;78.10;;;;;;4329976;33;20434;-79
2021/05/11 14:54:31;;;;;;;;;;;17.60;78.10;;;;;;4318952;33;20379;-79
2021/05/11 14:57:01;;;;;;;;;;;17.60;78.10;;;;;;4318930;33;20065;-79
2021/05/11 14:59:28;;;;;;;;;;;17.60;78.20;;;;;;4318910;33;20020;-79
2021/05/11 15:01:55;;;;;;;;;;;17.60;78.40;;;;;;4318938;33;20408;-79
2021/05/11 15:04:28;;;;;;;;;;;17.60;78.40;;;;;;4318667;33;20125;-80
2021/05/11 15:06:59;;;;;;;;;;;17.60;78.40;;;;;;4329806;33;20009;-80
2021/05/11 15:09:27;;;;;;;;;;;17.50;78.30;;;;;;4329506;33;20013;-78
2021/05/11 15:11:55;;;;;;;;;;;17.60;78.50;;;;;;4318736;33;20018;-79
2021/05/11 15:14:28;;;;;;;;;;;17.50;78.70;;;;;;4317637;33;20076;-79
2021/05/11 15:17:09;;;;;;;;;;;17.50;78.80;;;;;;4329655;33;20073;-79
2021/05/11 15:19:40;;;;;;;;;;;17.50;78.90;;;;;;4318652;33;20016;-78
2021/05/11 15:22:07;;;;;;;;;;;17.40;78.30;;;;;;4329759;33;20010;-78
2021/05/11 15:24:34;;;;;;;;;;;17.40;78.10;;;;;;4329682;33;20082;-78
2021/05/11 15:27:05;;;;;;;;;;;17.30;78.00;;;;;;4318108;33;20108;-78
2021/05/11 15:29:36;;;;;;;;;;;17.30;77.90;;;;;;4317115;33;20060;-78
2021/05/11 15:32:23;;;;;;;;;;;17.30;77.80;;;;;;4317344;33;19994;-79
2021/05/11 15:34:50;;;;;;;;;;;17.30;77.90;;;;;;4318425;33;20019;-79
2021/05/11 15:37:21;;;;;;;;;;;17.30;78.10;;;;;;4329404;33;20028;-79
2021/05/11 15:39:48;;;;;;;;;;;17.30;78.00;;;;;;4329489;33;20066;-78
2021/05/11 15:42:18;;;;;;;;;;;17.30;78.10;;;;;;4317108;33;19999;-78
2021/05/11 15:44:45;;;;;;;;;;;17.30;78.10;;;;;;4317267;33;20055;-78
2021/05/11 15:47:16;;;;;;;;;;;17.30;77.90;;;;;;4317016;33;20026;-79
2021/05/11 15:49:49;;;;;;;;;;;17.30;77.80;;;;;;4329210;33;20060;-78
2021/05/11 15:52:21;;;;;;;;;;;17.20;77.80;;;;;;4317912;33;20043;-78
2021/05/11 15:54:51;;;;;;;;;;;17.20;77.80;;;;;;4317407;33;20037;-78
2021/05/11 15:57:22;;;;;;;;;;;17.20;77.90;;;;;;4316921;33;20005;-79
2021/05/11 15:59:51;;;;;;;;;;;17.20;78.00;;;;;;4318149;33;20010;-78
2021/05/11 16:02:22;;;;;;;;;;;17.10;78.00;;;;;;4316805;33;20031;-78
2021/05/11 16:04:52;;;;;;;;;;;17.10;78.00;;;;;;4318189;33;20448;-79
2021/05/11 16:07:25;;;;;;;;;;;17.10;78.00;;;;;;4318000;33;20006;-79
2021/05/11 16:09:53;;;;;;;;;;;17.10;78.00;;;;;;4318045;33;20005;-79
2021/05/11 16:12:20;;;;;;;;;;;17.00;78.00;;;;;;4328946;33;20073;-79
2021/05/11 16:14:51;;;;;;;;;;;17.10;78.20;;;;;;4317908;33;20010;-78
2021/05/11 16:17:21;;;;;;;;;;;17.10;78.10;;;;;;4329034;33;20011;-79
2021/05/11 16:19:48;;;;;;;;;;;17.10;78.10;;;;;;4317942;33;20317;-78
2021/05/11 16:22:15;;;;;;;;;;;17.10;78.00;;;;;;4316515;33;20009;-78
2021/05/11 16:25:02;;;;;;;;;;;17.10;77.90;;;;;;4318011;33;20447;-78
2021/05/11 16:27:29;;;;;;;;;;;17.10;77.70;;;;;;4316149;33;20006;-78
2021/05/11 16:29:57;;;;;;;;;;;17.10;77.80;;;;;;4317442;33;20019;-78
2021/05/11 16:32:26;;;;;;;;;;;17.10;77.80;;;;;;4317630;33;20071;-78
2021/05/11 16:34:56;;;;;;;;;;;17.20;77.80;;;;;;4316255;33;20016;-78
2021/05/11 16:37:23;;;;;;;;;;;17.20;77.80;;;;;;4317465;33;20013;-79
2021/05/11 16:39:59;;;;;;;;;;;17.20;77.90;;;;;;4317450;33;20009;-79
2021/05/11 16:42:26;;;;;;;;;;;17.20;77.80;;;;;;4328844;33;20010;-79
2021/05/11 16:44:55;;;;;;;;;;;17.20;77.90;;;;;;4317479;33;20083;-79
2021/05/11 16:47:25;;;;;;;;;;;17.20;77.80;;;;;;4328237;33;20086;-79
2021/05/11 16:49:56;;;;;;;;;;;17.20;77.70;;;;;;4328449;33;20425;-79
2021/05/11 16:52:26;;;;;;;;;;;17.20;77.70;;;;;;4317447;33;20010;-79
2021/05/11 16:54:59;;;;;;;;;;;17.20;77.60;;;;;;4317485;33;20001;-79
2021/05/11 16:57:30;;;;;;;;;;;17.20;77.40;;;;;;4328342;33;20012;-78
2021/05/11 16:59:57;;;;;;;;;;;17.20;77.40;;;;;;4317606;33;20313;-79
2021/05/11 17:02:24;;;;;;;;;;;17.20;77.40;;;;;;4316244;33;20075;-79
2021/05/11 17:04:54;;;;;;;;;;;17.20;77.30;;;;;;4317446;33;20098;-79
2021/05/11 17:07:27;;;;;;;;;;;17.20;77.30;;;;;;4317383;33;20482;-79
2021/05/11 17:10:00;;;;;;;;;;;17.20;77.30;;;;;;4316478;33;20061;-78
2021/05/11 17:12:27;;;;;;;;;;;17.20;77.20;;;;;;4328449;33;20085;-79
2021/05/11 17:14:58;;;;;;;;;;;17.20;77.10;;;;;;4317342;33;20085;-79
2021/05/11 17:17:25;;;;;;;;;;;17.20;76.90;;;;;;4316007;33;20010;-79
2021/05/11 17:19:55;;;;;;;;;;;17.30;76.90;;;;;;4328311;33;20013;-79
2021/05/11 17:22:25;;;;;;;;;;;17.30;76.70;;;;;;4316954;33;20005;-79
2021/05/11 17:24:53;;;;;;;;;;;17.30;76.40;;;;;;4317369;33;20053;-79
2021/05/11 17:27:27;;;;;;;;;;;17.30;76.70;;;;;;4317329;33;20028;-79
2021/05/11 17:29:57;;;;;;;;;;;17.20;76.70;;;;;;4328159;33;20014;-78
2021/05/11 17:32:29;;;;;;;;;;;17.20;77.00;;;;;;4317230;33;20437;-79
2021/05/11 17:35:02;;;;;;;;;;;17.20;77.20;;;;;;4317404;33;20010;-79
2021/05/11 17:37:31;;;;;;;;;;;17.20;77.30;;;;;;4316137;33;20400;-79
2021/05/11 17:40:02;;;;;;;;;;;17.10;77.40;;;;;;4315948;33;20062;-79
2021/05/11 17:42:32;;;;;;;;;;;17.10;77.60;;;;;;4304221;33;20010;-79
2021/05/11 17:44:59;;;;;;;;;;;17.10;77.50;;;;;;4317152;33;20083;-79
2021/05/11 17:47:29;;;;;;;;;;;17.10;77.60;;;;;;4317158;33;20039;-79
2021/05/11 17:50:00;;;;;;;;;;;17.10;77.60;;;;;;4317204;33;20002;-79
2021/05/11 17:52:32;;;;;;;;;;;17.00;77.70;;;;;;4328002;33;20006;-79
2021/05/11 17:55:02;;;;;;;;;;;17.10;77.70;;;;;;4317160;33;20396;-79
2021/05/11 17:57:32;;;;;;;;;;;17.10;77.60;;;;;;4317121;33;20061;-79
2021/05/11 17:59:59;;;;;;;;;;;17.10;77.60;;;;;;4316777;33;20434;-79
2021/05/11 18:02:29;;;;;;;;;;;17.00;77.70;;;;;;4316861;33;20549;-79
2021/05/11 18:04:59;;;;;;;;;;;17.00;77.80;;;;;;4316994;33;20009;-80
2021/05/11 18:07:26;;;;;;;;;;;17.00;77.90;;;;;;4327953;33;20404;-79
2021/05/11 18:09:56;;;;;;;;;;;17.00;77.90;;;;;;4327965;33;20018;-80
2021/05/11 18:12:29;;;;;;;;;;;16.90;77.90;;;;;;4316950;33;20014;-79
2021/05/11 18:14:56;;;;;;;;;;;16.90;77.90;;;;;;4328086;33;20014;-79
2021/05/11 18:17:26;;;;;;;;;;;16.90;78.00;;;;;;4316821;33;20024;-79
2021/05/11 18:19:59;;;;;;;;;;;16.90;78.10;;;;;;4315859;33;20016;-79
2021/05/11 18:22:26;;;;;;;;;;;16.90;78.10;;;;;;4330076;33;20039;-79
2021/05/11 18:24:56;;;;;;;;;;;16.80;78.20;;;;;;4319357;33;20073;-79
2021/05/11 18:27:23;;;;;;;;;;;16.80;78.20;;;;;;4319878;33;20027;-79
2021/05/11 18:29:50;;;;;;;;;;;16.80;78.30;;;;;;4330471;33;20052;-79
2021/05/11 18:32:18;;;;;;;;;;;16.80;78.30;;;;;;4318478;33;20062;-79
2021/05/11 18:34:45;;;;;;;;;;;16.80;78.30;;;;;;4319320;33;20069;-79
2021/05/11 18:40:09;;;;;;;;;;;16.80;78.20;;;;;;4318674;33;20447;-79
2021/05/11 18:42:39;;;;;;;;;;;16.80;78.20;;;;;;4319305;33;20010;-79
2021/05/11 18:45:07;;;;;;;;;;;16.80;78.30;;;;;;4319280;33;20010;-79
2021/05/11 18:47:41;;;;;;;;;;;16.80;78.40;;;;;;4319157;33;20067;-79
2021/05/11 18:50:11;;;;;;;;;;;16.80;78.30;;;;;;4319086;33;20014;-79
2021/05/11 18:52:44;;;;;;;;;;;16.80;78.40;;;;;;4319328;33;20002;-79
2021/05/11 18:55:11;;;;;;;;;;;16.80;78.30;;;;;;4317698;33;20008;-78